TimeMDT,TemperatureF,Dew PointF,Humidity,Sea Level PressureIn,VisibilityMPH,Wind Direction,Wind SpeedMPH,Gust SpeedMPH,PrecipitationIn,Events,Conditions,WindDirDegrees,DateUTC
12:53 AM,62.1,43.0,50,29.78,10.0,South,3.5,-,N/A,,Mostly Cloudy,170,2013-08-02 06:53:00
1:53 AM,60.1,44.1,55,29.81,10.0,South,4.6,-,N/A,,Clear,180,2013-08-02 07:53:00
2:53 AM,60.1,39.9,47,29.82,10.0,South,9.2,-,N/A,,Clear,190,2013-08-02 08:53:00
3:53 AM,57.9,37.0,46,29.85,10.0,South,13.8,-,N/A,,Clear,180,2013-08-02 09:53:00
4:53 AM,57.0,42.1,57,29.88,10.0,South,11.5,-,N/A,,Clear,190,2013-08-02 10:53:00
5:53 AM,55.0,42.1,62,29.90,10.0,South,10.4,-,N/A,,Clear,190,2013-08-02 11:53:00
6:53 AM,54.0,42.1,64,29.94,10.0,South,11.5,-,N/A,,Clear,190,2013-08-02 12:53:00
7:53 AM,57.0,42.1,57,29.96,10.0,SSW,10.4,-,N/A,,Clear,200,2013-08-02 13:53:00
8:53 AM,61.0,41.0,48,29.97,10.0,SSW,16.1,21.9,N/A,,Clear,210,2013-08-02 14:53:00
9:53 AM,64.9,39.9,40,29.98,10.0,SSW,16.1,23.0,N/A,,Clear,210,2013-08-02 15:53:00
10:53 AM,68.0,39.9,36,29.99,10.0,SW,15.0,21.9,N/A,,Clear,220,2013-08-02 16:53:00
11:53 AM,71.1,39.9,32,29.99,10.0,SW,15.0,25.3,N/A,,Clear,220,2013-08-02 17:53:00
12:53 PM,73.9,37.9,27,29.98,10.0,SSW,13.8,21.9,N/A,,Clear,200,2013-08-02 18:53:00
1:53 PM,77.0,33.1,20,29.96,10.0,SSW,13.8,19.6,N/A,,Clear,210,2013-08-02 19:53:00
2:53 PM,78.1,30.0,17,29.95,10.0,South,11.5,24.2,N/A,,Clear,190,2013-08-02 20:53:00
3:53 PM,79.0,30.0,17,29.94,10.0,SW,13.8,24.2,N/A,,Clear,220,2013-08-02 21:53:00
4:53 PM,80.1,30.0,16,29.92,10.0,SSW,13.8,20.7,N/A,,Clear,210,2013-08-02 22:53:00
5:53 PM,80.1,24.1,13,29.91,10.0,SW,17.3,23.0,N/A,,Clear,220,2013-08-02 23:53:00
6:53 PM,79.0,30.0,17,29.91,10.0,SW,8.1,-,N/A,,Clear,230,2013-08-03 00:53:00
7:53 PM,75.9,33.1,21,29.91,10.0,WSW,4.6,-,N/A,,Clear,240,2013-08-03 01:53:00
8:53 PM,70.0,35.1,28,29.92,10.0,South,3.5,-,N/A,,Clear,180,2013-08-03 02:53:00
9:53 PM,66.0,35.1,32,29.94,10.0,South,4.6,-,N/A,,Clear,180,2013-08-03 03:53:00
10:53 PM,60.1,39.0,46,29.96,10.0,Calm,Calm,-,N/A,,Clear,0,2013-08-03 04:53:00
11:53 PM,57.0,43.0,59,29.96,10.0,NNE,3.5,-,N/A,,Clear,30,2013-08-03 05:53:00